Time;durP1;ratioP1;P1;durP2;ratioP2;P2;SDS_P1;SDS_P2;PMS_P1;PMS_P2;Temp;Humidity;BMP_temperature;BMP_pressure;BME280_temperature;BME280_humidity;BME280_pressure;Samples;Min_cycle;Max_cycle;Signal;HPM_P1;HPM_P2
2021/12/02 00:01:11;;;;;;;;;37.50;36.25;10.10;51.10;;;;;;5074987;28;8804;-75
2021/12/02 00:03:37;;;;;;;;;44.00;40.25;10.50;49.80;;;;;;5075175;28;8764;-75
2021/12/02 00:06:11;;;;;;;;;52.00;45.00;10.40;50.00;;;;;;5073431;28;8914;-75
2021/12/02 00:08:38;;;;;;;;;44.75;40.00;10.60;49.80;;;;;;5074056;28;8796;-75
2021/12/02 00:11:04;;;;;;;;;41.75;38.75;10.50;49.80;;;;;;5074610;28;8773;-76
2021/12/02 00:13:37;;;;;;;;;47.50;42.00;10.60;49.30;;;;;;5075099;28;8768;-75
2021/12/02 00:16:20;;;;;;;;;41.50;37.50;10.90;49.00;;;;;;5075013;28;8801;-75
2021/12/02 00:21:20;;;;;;;;;42.50;38.75;10.90;49.10;;;;;;5074768;28;8792;-75
2021/12/02 00:24:06;;;;;;;;;32.50;32.50;11.10;48.30;;;;;;5074148;28;8788;-75
2021/12/02 00:26:34;;;;;;;;;41.00;38.00;10.90;48.90;;;;;;5075053;28;9507;-75
2021/12/02 00:29:03;;;;;;;;;49.00;43.00;11.00;48.60;;;;;;5074979;28;9542;-75
2021/12/02 00:31:32;;;;;;;;;43.00;38.25;11.20;48.20;;;;;;5074830;28;8957;-75
2021/12/02 00:34:04;;;;;;;;;48.25;40.50;11.30;47.80;;;;;;5074982;28;8787;-75
2021/12/02 00:36:32;;;;;;;;;43.75;39.75;11.30;47.80;;;;;;5073483;28;8800;-77
2021/12/02 00:39:03;;;;;;;;;43.75;40.75;11.20;47.70;;;;;;5074688;28;8786;-74
2021/12/02 00:41:28;;;;;;;;;49.50;43.25;11.00;48.90;;;;;;5073542;28;8830;-76
2021/12/02 00:43:58;;;;;;;;;44.75;41.25;10.90;48.90;;;;;;5074586;28;8788;-75
2021/12/02 00:46:26;;;;;;;;;46.25;42.00;10.80;49.00;;;;;;5074724;28;8788;-74
2021/12/02 00:48:53;;;;;;;;;51.75;44.50;10.80;49.10;;;;;;5074611;28;8753;-74
2021/12/02 00:51:19;;;;;;;;;49.25;42.25;11.10;48.70;;;;;;5074664;28;8903;-75
2021/12/02 00:53:51;;;;;;;;;48.50;43.00;11.10;48.60;;;;;;5074459;28;9406;-74
2021/12/02 00:56:24;;;;;;;;;51.75;44.75;10.90;48.80;;;;;;5074530;28;8749;-74
2021/12/02 00:58:51;;;;;;;;;49.75;43.75;10.80;49.30;;;;;;5074735;28;8759;-75
2021/12/02 01:01:19;;;;;;;;;45.00;41.75;11.00;49.10;;;;;;5074525;28;8811;-75
2021/12/02 01:03:48;;;;;;;;;42.50;38.50;11.20;48.60;;;;;;5074410;28;8752;-74
2021/12/02 01:06:14;;;;;;;;;37.25;36.00;11.30;47.90;;;;;;5074167;28;8819;-74
2021/12/02 01:08:40;;;;;;;;;32.75;32.75;11.30;48.10;;;;;;5074905;28;8768;-75
2021/12/02 01:11:09;;;;;;;;;27.00;26.75;11.10;48.70;;;;;;5074306;28;8827;-75
2021/12/02 01:13:35;;;;;;;;;25.00;25.00;10.90;50.00;;;;;;5074446;28;8776;-74
2021/12/02 01:16:02;;;;;;;;;28.50;28.50;10.70;50.30;;;;;;5074483;28;8818;-74
2021/12/02 01:18:28;;;;;;;;;22.00;22.00;10.70;50.70;;;;;;5074250;28;8779;-74
2021/12/02 01:20:54;;;;;;;;;24.25;24.25;11.00;49.40;;;;;;5074096;28;8800;-75
2021/12/02 01:23:22;;;;;;;;;27.00;27.00;11.30;48.70;;;;;;5076150;28;8764;-75
2021/12/02 01:25:53;;;;;;;;;32.50;30.75;10.90;49.10;;;;;;5077976;28;8776;-75
2021/12/02 01:28:21;;;;;;;;;27.50;27.50;11.00;49.80;;;;;;5078240;28;8757;-75
2021/12/02 01:30:50;;;;;;;;;22.50;22.50;10.80;50.30;;;;;;5078087;28;8877;-75
2021/12/02 01:33:18;;;;;;;;;24.25;24.25;11.00;49.40;;;;;;5078084;28;8753;-75
2021/12/02 01:35:49;;;;;;;;;20.00;20.00;11.20;48.80;;;;;;5078169;28;8853;-75
2021/12/02 01:38:16;;;;;;;;;17.33;17.33;11.10;48.90;;;;;;5078063;28;8769;-75
2021/12/02 01:40:44;;;;;;;;;23.25;22.50;11.10;49.20;;;;;;5077921;28;8877;-75
2021/12/02 01:43:15;;;;;;;;;24.50;24.25;11.10;49.40;;;;;;5077951;28;8762;-76
2021/12/02 01:45:41;;;;;;;;;19.67;19.67;11.20;48.80;;;;;;5076837;28;8798;-75
2021/12/02 01:48:14;;;;;;;;;18.33;18.33;11.20;48.60;;;;;;5078098;28;8788;-76
2021/12/02 01:50:42;;;;;;;;;26.75;25.75;11.10;48.70;;;;;;5077798;28;8797;-75
2021/12/02 01:53:14;;;;;;;;;27.00;27.00;11.20;48.90;;;;;;5077840;28;8753;-76
2021/12/02 01:55:43;;;;;;;;;27.50;27.50;11.20;49.30;;;;;;5077670;28;8752;-76
2021/12/02 01:58:15;;;;;;;;;23.25;23.25;10.90;49.60;;;;;;5077834;28;8844;-76
2021/12/02 02:00:44;;;;;;;;;30.75;29.75;10.80;50.20;;;;;;5077547;28;8796;-75
2021/12/02 02:03:12;;;;;;;;;26.75;26.50;10.80;50.20;;;;;;5077470;28;8852;-75
2021/12/02 02:05:39;;;;;;;;;26.00;26.00;10.70;50.40;;;;;;5077303;28;8781;-77
2021/12/02 02:08:21;;;;;;;;;45.25;39.75;10.90;50.30;;;;;;5077436;28;8772;-76
2021/12/02 02:10:47;;;;;;;;;42.50;39.00;10.50;50.90;;;;;;5077372;28;8792;-74
2021/12/02 02:13:15;;;;;;;;;39.75;36.25;10.60;50.70;;;;;;5077624;28;8768;-77
2021/12/02 02:15:45;;;;;;;;;41.75;38.75;10.60;51.00;;;;;;5077302;28;8811;-76
2021/12/02 02:18:20;;;;;;;;;43.25;39.00;10.50;51.30;;;;;;5077215;28;8780;-76
2021/12/02 02:21:08;;;;;;;;;51.25;44.25;10.50;51.40;;;;;;5077179;28;9505;-76
2021/12/02 02:23:39;;;;;;;;;40.00;37.50;10.30;51.90;;;;;;5077181;28;8783;-74
2021/12/02 02:26:08;;;;;;;;;42.50;39.50;10.30;51.90;;;;;;5077223;28;8932;-75
2021/12/02 02:28:34;;;;;;;;;40.25;38.00;10.50;51.40;;;;;;5077295;28;8779;-77
2021/12/02 02:31:00;;;;;;;;;40.50;37.75;10.60;50.80;;;;;;5076984;28;8773;-75
2021/12/02 02:33:35;;;;;;;;;25.25;25.25;10.50;51.60;;;;;;5076941;28;8781;-76
2021/12/02 02:36:00;;;;;;;;;35.75;35.00;10.50;51.50;;;;;;5076528;28;8773;-74
2021/12/02 02:38:26;;;;;;;;;33.00;32.50;10.50;51.50;;;;;;5076920;28;8800;-78
2021/12/02 02:40:54;;;;;;;;;35.50;35.50;10.60;51.30;;;;;;5076693;28;8871;-75
2021/12/02 02:43:23;;;;;;;;;32.25;32.25;10.80;51.00;;;;;;5076799;28;8861;-77
2021/12/02 02:45:49;;;;;;;;;30.50;30.50;10.60;51.20;;;;;;5076751;28;8796;-74
2021/12/02 02:48:15;;;;;;;;;25.50;25.50;10.80;50.60;;;;;;5076903;28;8764;-78
2021/12/02 02:50:41;;;;;;;;;26.25;26.25;10.90;51.40;;;;;;5076847;28;9457;-78
2021/12/02 02:53:15;;;;;;;;;26.00;26.00;11.00;49.90;;;;;;5076867;28;8772;-76
2021/12/02 02:55:44;;;;;;;;;24.50;24.50;10.90;50.40;;;;;;5076545;28;8848;-77
2021/12/02 03:01:28;;;;;;;;;31.50;31.00;10.80;50.80;;;;;;5076772;28;9390;-77
2021/12/02 03:09:04;;;;;;;;;30.75;30.75;10.50;51.90;;;;;;5076583;28;8875;-78
2021/12/02 03:11:39;;;;;;;;;28.75;28.75;10.50;52.00;;;;;;5076465;28;8776;-75
2021/12/02 03:14:11;;;;;;;;;30.25;30.25;10.90;51.10;;;;;;5076411;28;8863;-75
2021/12/02 03:16:45;;;;;;;;;27.00;26.50;11.00;50.90;;;;;;5076392;28;8824;-75
2021/12/02 03:19:21;;;;;;;;;25.25;25.25;11.00;50.40;;;;;;5076173;28;8752;-75
2021/12/02 03:21:47;;;;;;;;;24.00;21.00;10.90;51.30;;;;;;5076011;28;8824;-75
2021/12/02 03:24:12;;;;;;;;;22.25;22.25;10.60;52.30;;;;;;5076242;28;8772;-75
2021/12/02 03:26:38;;;;;;;;;24.25;24.25;10.60;52.20;;;;;;5075929;28;9389;-74
2021/12/02 03:29:05;;;;;;;;;20.50;20.50;10.70;52.20;;;;;;5075979;28;8791;-79
2021/12/02 03:31:31;;;;;;;;;23.00;23.00;10.90;51.30;;;;;;5076111;28;9387;-77
2021/12/02 03:33:57;;;;;;;;;19.75;19.75;11.10;51.20;;;;;;5075802;28;8799;-75
2021/12/02 03:36:23;;;;;;;;;20.25;19.50;11.20;50.60;;;;;;5075822;28;8753;-75
2021/12/02 03:38:49;;;;;;;;;17.25;17.25;11.00;50.80;;;;;;5074580;28;8852;-75
2021/12/02 03:41:16;;;;;;;;;16.33;16.33;11.30;50.40;;;;;;5075519;28;8792;-76
2021/12/02 03:43:44;;;;;;;;;18.25;18.25;11.20;50.40;;;;;;5075589;28;8769;-76
2021/12/02 03:46:13;;;;;;;;;16.00;14.50;11.20;50.40;;;;;;5074697;28;8793;-77
2021/12/02 03:48:39;;;;;;;;;22.75;22.75;11.20;50.80;;;;;;5075298;28;8752;-76
2021/12/02 03:51:06;;;;;;;;;21.50;21.50;11.20;50.80;;;;;;5075448;28;8749;-79
2021/12/02 03:53:32;;;;;;;;;20.25;20.25;11.10;50.90;;;;;;5075616;28;9488;-76
2021/12/02 03:55:58;;;;;;;;;16.00;16.00;11.10;51.80;;;;;;5075627;28;8741;-77
2021/12/02 03:58:24;;;;;;;;;15.00;15.00;11.00;52.00;;;;;;5075264;28;8868;-78
2021/12/02 04:00:49;;;;;;;;;16.00;16.00;11.00;52.00;;;;;;5075108;28;8797;-76
2021/12/02 04:03:15;;;;;;;;;17.00;17.00;11.10;51.50;;;;;;5075214;28;8764;-76
2021/12/02 04:05:41;;;;;;;;;20.25;20.25;11.10;51.40;;;;;;5075133;28;8781;-75
2021/12/02 04:08:10;;;;;;;;;21.33;21.33;11.20;51.30;;;;;;5075084;28;8780;-76
2021/12/02 04:10:37;;;;;;;;;22.67;22.67;11.10;51.50;;;;;;5075088;28;8772;-78
2021/12/02 04:13:26;;;;;;;;;16.67;16.00;11.20;51.70;;;;;;5075111;28;8753;-77
2021/12/02 04:15:57;;;;;;;;;13.00;12.33;10.70;53.10;;;;;;5075056;28;8861;-75
2021/12/02 04:18:23;;;;;;;;;23.25;23.25;10.60;53.40;;;;;;5074954;28;8761;-75
2021/12/02 04:20:49;;;;;;;;;17.25;17.25;10.80;52.70;;;;;;5073787;28;8824;-76
2021/12/02 04:23:15;;;;;;;;;24.50;24.50;10.60;53.30;;;;;;5075105;28;8768;-76
2021/12/02 04:25:40;;;;;;;;;28.25;28.25;10.60;53.30;;;;;;5074827;28;8773;-76
2021/12/02 04:28:06;;;;;;;;;33.50;33.25;10.70;53.00;;;;;;5075100;28;8894;-76
2021/12/02 04:30:32;;;;;;;;;27.50;27.50;10.80;52.40;;;;;;5074979;28;8784;-76
2021/12/02 04:32:58;;;;;;;;;29.25;29.25;10.70;52.50;;;;;;5075000;28;8773;-77
2021/12/02 04:35:24;;;;;;;;;25.75;25.75;10.40;53.90;;;;;;5074863;28;8918;-76
2021/12/02 04:37:53;;;;;;;;;30.25;30.25;10.50;53.50;;;;;;5074665;28;8871;-77
2021/12/02 04:40:21;;;;;;;;;32.50;32.50;10.50;53.20;;;;;;5074852;28;8911;-76
2021/12/02 04:42:48;;;;;;;;;35.50;35.00;10.80;52.70;;;;;;5074812;28;9526;-76
2021/12/02 04:45:15;;;;;;;;;40.00;37.75;10.70;52.70;;;;;;5074356;28;8788;-76
2021/12/02 04:47:41;;;;;;;;;38.75;37.00;10.50;53.20;;;;;;5074741;28;8788;-77
2021/12/02 04:50:09;;;;;;;;;43.25;40.00;10.50;53.60;;;;;;5074503;28;8872;-74
2021/12/02 04:52:35;;;;;;;;;37.75;36.50;10.30;54.20;;;;;;5074581;28;8748;-76
2021/12/02 04:55:01;;;;;;;;;31.50;31.50;10.40;54.10;;;;;;5074700;28;9457;-76
2021/12/02 04:57:27;;;;;;;;;48.00;41.25;10.10;54.80;;;;;;5074083;28;8769;-76
2021/12/02 04:59:53;;;;;;;;;46.25;40.75;10.20;54.80;;;;;;5074292;28;8800;-76
2021/12/02 05:02:18;;;;;;;;;44.00;39.75;10.30;54.50;;;;;;5074330;28;8769;-76
2021/12/02 05:04:44;;;;;;;;;42.00;38.75;10.50;54.00;;;;;;5074126;28;8872;-77
2021/12/02 05:07:10;;;;;;;;;41.25;38.75;10.50;53.80;;;;;;5074196;28;8804;-76
2021/12/02 05:09:36;;;;;;;;;38.75;36.50;10.50;53.80;;;;;;5074318;28;8858;-77
2021/12/02 05:12:02;;;;;;;;;42.75;38.75;10.50;53.90;;;;;;5074197;28;8788;-76
2021/12/02 05:14:28;;;;;;;;;43.75;39.50;10.80;52.90;;;;;;5074234;28;8764;-77
2021/12/02 05:16:54;;;;;;;;;48.50;43.00;10.90;52.10;;;;;;5074231;28;8812;-74
2021/12/02 05:19:19;;;;;;;;;41.75;39.00;11.00;51.80;;;;;;5074058;28;8773;-72
2021/12/02 05:21:45;;;;;;;;;42.00;38.25;11.00;51.70;;;;;;5073937;28;8800;-77
2021/12/02 05:24:11;;;;;;;;;35.50;34.25;11.00;52.10;;;;;;5074025;28;8764;-76
2021/12/02 05:26:38;;;;;;;;;27.75;27.75;10.60;53.10;;;;;;5074072;28;8915;-74
2021/12/02 05:29:03;;;;;;;;;22.25;22.25;10.10;55.10;;;;;;5074317;28;8783;-74
2021/12/02 05:31:29;;;;;;;;;25.50;25.50;9.90;55.80;;;;;;5074091;28;8800;-76
2021/12/02 05:33:55;;;;;;;;;32.00;31.25;9.80;56.30;;;;;;5074138;28;8764;-75
2021/12/02 05:36:21;;;;;;;;;37.50;36.50;9.60;57.20;;;;;;5073946;28;8779;-78
2021/12/02 05:38:46;;;;;;;;;28.25;28.25;9.40;58.10;;;;;;5072536;28;8966;-77
2021/12/02 05:41:14;;;;;;;;;36.50;35.50;9.60;57.60;;;;;;5062983;28;8872;-76
2021/12/02 05:43:40;;;;;;;;;39.75;38.00;9.80;56.80;;;;;;5072039;28;8772;-71
2021/12/02 05:46:06;;;;;;;;;39.25;37.00;9.80;56.60;;;;;;5062088;28;8820;-77
2021/12/02 05:48:32;;;;;;;;;39.25;37.50;9.90;56.70;;;;;;5073875;28;8761;-79
2021/12/02 05:50:59;;;;;;;;;39.50;37.00;10.00;56.60;;;;;;5073796;28;8845;-74
2021/12/02 05:53:24;;;;;;;;;39.00;37.75;10.10;56.30;;;;;;5069675;28;9403;-78
2021/12/02 05:55:50;;;;;;;;;48.75;42.75;10.40;55.20;;;;;;5053756;28;8953;-73
2021/12/02 05:58:16;;;;;;;;;49.75;43.50;10.50;54.80;;;;;;5053692;28;8771;-72
2021/12/02 06:00:42;;;;;;;;;51.25;44.25;10.90;53.70;;;;;;5063533;28;8819;-78
2021/12/02 06:03:08;;;;;;;;;52.75;45.75;11.00;53.40;;;;;;5063659;28;8761;-70
2021/12/02 06:05:34;;;;;;;;;46.50;41.75;11.10;52.60;;;;;;5053837;28;8826;-65
2021/12/02 06:08:03;;;;;;;;;42.50;39.00;11.30;51.80;;;;;;5053548;28;8759;-67
2021/12/02 06:10:29;;;;;;;;;38.75;37.50;11.10;52.10;;;;;;5054177;28;8767;-73
2021/12/02 06:12:56;;;;;;;;;34.50;34.50;11.00;52.70;;;;;;5057402;28;8846;-71
2021/12/02 06:15:22;;;;;;;;;35.00;35.00;11.00;52.80;;;;;;5057013;28;9483;-68
2021/12/02 06:17:49;;;;;;;;;29.25;29.25;11.00;52.90;;;;;;5057159;28;8763;-69
2021/12/02 06:20:19;;;;;;;;;25.50;25.50;10.90;53.30;;;;;;5057021;28;8799;-70
2021/12/02 06:22:46;;;;;;;;;28.00;28.00;10.90;53.40;;;;;;5057123;28;8778;-68
2021/12/02 06:27:44;;;;;;;;;45.00;40.00;11.00;53.10;;;;;;5057277;28;8764;-69
2021/12/02 06:30:11;;;;;;;;;46.75;42.00;11.00;52.50;;;;;;5056913;28;8854;-70
2021/12/02 06:32:37;;;;;;;;;51.00;44.00;10.70;53.70;;;;;;5056843;28;8821;-69
2021/12/02 06:35:03;;;;;;;;;55.75;47.75;10.70;53.30;;;;;;5056743;28;8779;-69
2021/12/02 06:37:29;;;;;;;;;62.25;52.25;10.90;53.00;;;;;;5056981;28;8820;-68
2021/12/02 06:39:55;;;;;;;;;66.25;55.00;11.20;52.10;;;;;;5056901;28;8779;-68
2021/12/02 06:42:21;;;;;;;;;73.00;60.00;11.10;52.20;;;;;;5056700;28;9385;-70
2021/12/02 06:44:47;;;;;;;;;75.50;60.00;10.70;53.70;;;;;;5056619;28;8809;-69
2021/12/02 06:47:13;;;;;;;;;74.00;60.75;10.90;53.80;;;;;;5057186;28;8802;-69
2021/12/02 06:49:40;;;;;;;;;63.75;52.75;11.00;53.10;;;;;;5056857;28;8779;-70
2021/12/02 06:52:10;;;;;;;;;64.50;54.25;11.10;52.90;;;;;;5056793;28;8773;-68
2021/12/02 06:54:37;;;;;;;;;65.00;53.00;11.30;52.30;;;;;;5056830;28;8767;-69
2021/12/02 06:57:03;;;;;;;;;64.00;53.00;11.60;51.60;;;;;;5056501;28;8845;-69
2021/12/02 06:59:29;;;;;;;;;68.25;56.00;11.60;51.50;;;;;;5056320;28;8774;-69
2021/12/02 07:01:55;;;;;;;;;65.25;53.75;11.30;52.60;;;;;;5056251;28;8791;-68
2021/12/02 07:04:21;;;;;;;;;67.00;55.75;11.20;53.10;;;;;;5056178;28;8783;-69
2021/12/02 07:06:47;;;;;;;;;62.75;51.50;11.00;53.80;;;;;;5056174;28;8815;-67
2021/12/02 07:09:13;;;;;;;;;55.25;47.75;10.70;55.40;;;;;;5056192;28;8787;-73
2021/12/02 07:11:39;;;;;;;;;56.25;48.75;10.60;55.30;;;;;;5056505;28;8856;-74
2021/12/02 07:14:08;;;;;;;;;50.75;43.00;10.90;55.00;;;;;;5056515;28;8759;-76
2021/12/02 07:16:36;;;;;;;;;47.25;41.75;11.00;54.50;;;;;;5056261;28;8787;-77
2021/12/02 07:19:07;;;;;;;;;49.75;43.75;11.10;54.40;;;;;;5056345;28;8767;-74
2021/12/02 07:21:38;;;;;;;;;50.25;44.00;10.90;54.80;;;;;;5055824;28;9439;-73
2021/12/02 07:24:05;;;;;;;;;52.75;44.75;10.90;55.20;;;;;;5056290;28;9422;-76
2021/12/02 07:26:39;;;;;;;;;57.25;49.50;11.10;55.20;;;;;;5054836;28;8879;-74
2021/12/02 07:29:05;;;;;;;;;60.00;51.50;11.20;54.50;;;;;;5056290;28;8775;-74
2021/12/02 07:31:31;;;;;;;;;67.75;56.50;11.50;54.00;;;;;;5055899;28;8751;-76
2021/12/02 07:33:58;;;;;;;;;80.25;67.00;11.50;53.60;;;;;;5055981;28;8795;-76
2021/12/02 07:36:25;;;;;;;;;84.00;76.50;11.50;53.60;;;;;;5055690;28;8829;-76
2021/12/02 07:38:51;;;;;;;;;90.00;85.00;11.50;53.00;;;;;;5055809;28;8789;-74
2021/12/02 07:41:16;;;;;;;;;104.25;101.75;11.70;52.90;;;;;;5055778;28;8896;-76
2021/12/02 07:43:42;;;;;;;;;103.00;98.25;11.60;52.90;;;;;;5055402;28;8778;-74
2021/12/02 07:46:09;;;;;;;;;110.25;106.50;11.50;53.40;;;;;;5055623;28;8787;-74
2021/12/02 07:48:36;;;;;;;;;113.75;112.50;11.70;54.20;;;;;;5055621;28;8779;-74
2021/12/02 07:51:08;;;;;;;;;133.75;128.50;11.90;52.70;;;;;;5055527;28;8766;-74
2021/12/02 07:53:35;;;;;;;;;113.75;109.75;11.80;52.70;;;;;;5054214;28;8783;-77
2021/12/02 07:56:04;;;;;;;;;107.25;98.75;11.90;52.60;;;;;;5055499;28;9514;-74
2021/12/02 07:58:30;;;;;;;;;90.25;88.00;11.80;53.00;;;;;;5055295;28;8779;-74
2021/12/02 08:01:01;;;;;;;;;94.50;92.25;11.60;53.80;;;;;;5055129;28;9569;-75
2021/12/02 08:03:29;;;;;;;;;81.00;71.50;11.70;53.80;;;;;;5055140;28;8786;-75
2021/12/02 08:05:55;;;;;;;;;81.00;70.25;11.90;53.00;;;;;;5055134;28;8849;-75
2021/12/02 08:08:21;;;;;;;;;81.00;67.25;12.00;53.00;;;;;;5055066;28;8847;-75
2021/12/02 08:10:47;;;;;;;;;75.50;62.00;12.20;52.60;;;;;;5055120;28;8790;-75
2021/12/02 08:13:15;;;;;;;;;84.25;78.00;12.10;52.60;;;;;;5054957;28;8843;-76
2021/12/02 08:15:42;;;;;;;;;92.50;81.50;12.20;51.90;;;;;;5054949;28;8794;-75
2021/12/02 08:18:09;;;;;;;;;83.25;68.25;12.30;51.90;;;;;;5054985;28;8779;-75
2021/12/02 08:20:36;;;;;;;;;82.00;74.00;12.20;52.70;;;;;;5053746;28;8829;-77
2021/12/02 08:23:02;;;;;;;;;84.25;76.50;12.20;52.20;;;;;;5054902;28;8782;-77
2021/12/02 08:25:31;;;;;;;;;86.75;79.25;12.40;52.00;;;;;;5054693;28;8947;-77
2021/12/02 08:28:01;;;;;;;;;84.75;74.00;12.50;51.70;;;;;;5054965;28;8802;-77
2021/12/02 08:30:30;;;;;;;;;75.25;62.00;12.20;53.10;;;;;;5054740;28;8775;-76
2021/12/02 08:32:58;;;;;;;;;73.75;58.75;12.40;52.80;;;;;;5054119;28;8751;-77
2021/12/02 08:35:25;;;;;;;;;68.75;56.00;12.40;53.30;;;;;;5054608;28;8786;-77
2021/12/02 08:37:54;;;;;;;;;63.75;53.50;12.30;54.00;;;;;;5054500;28;8864;-77
2021/12/02 08:40:36;;;;;;;;;55.50;46.75;12.60;53.00;;;;;;5054391;28;8811;-77
2021/12/02 08:43:06;;;;;;;;;57.75;48.25;12.80;52.80;;;;;;5054827;28;8918;-76
2021/12/02 08:45:34;;;;;;;;;55.25;46.50;13.10;52.40;;;;;;5054321;28;8779;-77
2021/12/02 08:48:00;;;;;;;;;52.50;44.75;13.40;52.00;;;;;;5053328;28;8778;-77
2021/12/02 08:50:26;;;;;;;;;57.00;48.00;13.30;51.90;;;;;;5054480;28;8755;-77
2021/12/02 08:52:54;;;;;;;;;55.00;46.75;13.70;50.90;;;;;;5054284;28;8763;-77
2021/12/02 08:55:22;;;;;;;;;54.75;46.75;13.80;50.90;;;;;;5054600;28;8775;-77
2021/12/02 08:57:49;;;;;;;;;56.75;48.25;14.00;50.00;;;;;;5054395;28;8794;-78
2021/12/02 09:00:18;;;;;;;;;53.25;46.00;14.10;50.90;;;;;;5054221;28;8791;-76
2021/12/02 09:02:44;;;;;;;;;57.00;48.25;14.20;50.40;;;;;;5054350;28;8834;-75
2021/12/02 09:05:10;;;;;;;;;57.75;48.50;14.40;49.30;;;;;;5054043;28;8817;-75
2021/12/02 09:07:36;;;;;;;;;60.25;50.50;14.70;49.00;;;;;;5054039;28;8789;-75
2021/12/02 09:10:04;;;;;;;;;57.00;48.00;15.30;47.90;;;;;;5054183;28;8810;-77
2021/12/02 09:12:30;;;;;;;;;54.50;46.25;15.30;48.00;;;;;;5054108;28;8790;-75
2021/12/02 09:14:56;;;;;;;;;56.75;48.00;15.30;47.90;;;;;;5053056;28;8771;-79
2021/12/02 09:17:22;;;;;;;;;59.25;50.00;15.40;48.00;;;;;;5054370;28;8790;-75
2021/12/02 09:19:48;;;;;;;;;58.25;49.25;15.80;47.00;;;;;;5053800;28;8973;-75
2021/12/02 09:22:14;;;;;;;;;46.00;40.75;15.30;48.00;;;;;;5052985;28;8787;-76
2021/12/02 09:24:40;;;;;;;;;39.00;36.67;14.60;49.50;;;;;;5053991;28;8882;-76
2021/12/02 09:27:06;;;;;;;;;48.75;42.00;14.40;49.90;;;;;;5054340;28;8779;-76
2021/12/02 09:29:32;;;;;;;;;46.75;40.75;14.30;50.00;;;;;;5054116;28;8848;-77
2021/12/02 09:31:58;;;;;;;;;48.00;41.00;14.30;50.20;;;;;;5054057;28;8771;-75
2021/12/02 09:34:26;;;;;;;;;52.75;45.00;14.30;50.30;;;;;;5054051;28;8769;-77
2021/12/02 09:36:52;;;;;;;;;47.50;40.50;14.30;50.00;;;;;;5054301;28;8843;-77
2021/12/02 09:39:18;;;;;;;;;38.00;36.67;14.40;49.00;;;;;;5054001;28;8774;-76
2021/12/02 09:41:46;;;;;;;;;33.33;32.33;14.60;48.40;;;;;;5054079;28;8803;-76
2021/12/02 09:44:13;;;;;;;;;32.67;32.00;14.70;48.10;;;;;;5053986;28;8755;-77
2021/12/02 09:46:40;;;;;;;;;34.67;33.00;14.90;47.50;;;;;;5058013;28;8779;-76
2021/12/02 09:49:08;;;;;;;;;43.00;39.25;14.90;47.60;;;;;;5057816;28;8767;-76
2021/12/02 09:54:26;;;;;;;;;39.33;36.00;15.00;48.60;;;;;;5058032;28;8752;-77
2021/12/02 09:56:55;;;;;;;;;39.00;36.00;15.30;47.60;;;;;;5057827;28;9552;-76
2021/12/02 10:02:08;;;;;;;;;38.33;33.67;15.80;46.50;;;;;;5057741;28;8783;-77
2021/12/02 10:05:01;;;;;;;;;45.00;38.00;16.30;45.60;;;;;;5057350;28;8813;-77
2021/12/02 10:10:05;;;;;;;;;47.50;41.25;17.10;42.70;;;;;;5057366;28;8763;-76
2021/12/02 10:12:33;;;;;;;;;42.50;39.00;16.60;44.20;;;;;;5057390;28;8778;-77
2021/12/02 10:15:02;;;;;;;;;50.00;42.75;16.50;44.00;;;;;;5057229;28;8785;-77
2021/12/02 10:23:17;;;;;;;;;46.33;40.33;20.40;38.00;;;;;;5034909;28;8968;-77
2021/12/02 10:25:55;;;;;;;;;43.67;37.67;19.80;36.70;;;;;;5035046;28;8827;-77
2021/12/02 10:28:21;;;;;;;;;35.67;34.33;18.10;40.50;;;;;;5035293;28;8770;-77
2021/12/02 10:30:58;;;;;;;;;39.67;36.33;17.20;42.70;;;;;;5034856;28;8806;-77
2021/12/02 10:33:41;;;;;;;;;30.00;29.67;16.80;43.00;;;;;;5034935;28;8782;-76
2021/12/02 10:36:35;;;;;;;;;15.67;15.67;17.80;42.00;;;;;;5019031;28;8790;-76
2021/12/02 10:39:11;;;;;;;;;25.67;25.67;17.50;40.30;;;;;;5034869;28;8781;-77
2021/12/02 10:41:42;;;;;;;;;18.33;18.33;17.10;41.00;;;;;;5034699;28;8814;-77
2021/12/02 10:44:24;;;;;;;;;20.00;18.00;16.50;42.40;;;;;;5034727;28;8804;-77
2021/12/02 10:46:57;;;;;;;;;35.00;32.67;16.10;43.10;;;;;;5017997;28;9483;-77
2021/12/02 10:49:25;;;;;;;;;41.00;36.00;15.90;43.90;;;;;;5034684;28;8924;-77
2021/12/02 10:51:54;;;;;;;;;18.67;18.67;16.10;43.60;;;;;;5018128;28;8766;-77
2021/12/02 10:54:30;;;;;;;;;22.33;22.33;16.00;44.00;;;;;;5034802;28;8758;-77
2021/12/02 10:56:59;;;;;;;;;30.00;29.67;16.10;44.10;;;;;;5034005;28;8838;-78
2021/12/02 10:59:40;;;;;;;;;38.67;36.33;16.00;44.60;;;;;;5042291;28;8767;-78
2021/12/02 11:02:36;;;;;;;;;41.00;37.00;16.40;43.60;;;;;;5056631;28;8871;-78
2021/12/02 11:05:09;;;;;;;;;33.00;32.33;16.50;43.90;;;;;;5055958;28;8783;-78
2021/12/02 11:07:40;;;;;;;;;25.00;25.00;16.40;43.20;;;;;;5056586;28;8844;-78
2021/12/02 11:10:10;;;;;;;;;31.33;31.33;16.20;44.00;;;;;;5055187;28;9426;-76
2021/12/02 11:12:38;;;;;;;;;26.00;26.00;16.10;44.00;;;;;;5056320;28;8872;-78
2021/12/02 11:15:07;;;;;;;;;24.33;24.00;16.40;43.20;;;;;;5056375;28;8763;-77
2021/12/02 11:17:44;;;;;;;;;26.67;25.67;16.20;43.90;;;;;;5056368;28;8816;-76
2021/12/02 11:20:16;;;;;;;;;26.67;26.67;15.90;44.70;;;;;;5056007;28;8817;-77
2021/12/02 11:22:42;;;;;;;;;20.33;20.33;16.00;45.10;;;;;;5055860;28;8788;-78
2021/12/02 11:25:10;;;;;;;;;32.00;30.00;16.20;43.70;;;;;;5055842;28;8840;-78
2021/12/02 11:27:40;;;;;;;;;31.00;30.00;16.30;43.80;;;;;;5055887;28;8897;-77
2021/12/02 11:30:29;;;;;;;;;28.67;28.67;16.00;44.90;;;;;;5055896;28;8767;-78
2021/12/02 11:33:01;;;;;;;;;30.00;30.00;15.90;45.50;;;;;;5056066;28;9507;-75
2021/12/02 11:35:33;;;;;;;;;27.00;27.00;15.90;45.20;;;;;;5055779;28;8759;-77
2021/12/02 11:38:10;;;;;;;;;34.67;32.00;16.10;44.70;;;;;;5055612;28;8789;-77
2021/12/02 11:40:47;;;;;;;;;34.67;33.33;16.30;44.50;;;;;;5055373;28;8831;-77
2021/12/02 11:43:18;;;;;;;;;33.67;31.33;16.80;43.40;;;;;;5055723;28;8751;-77
2021/12/02 11:45:46;;;;;;;;;35.00;33.00;17.10;42.70;;;;;;5055418;28;8790;-76
2021/12/02 11:48:41;;;;;;;;;37.00;34.33;17.40;42.80;;;;;;5054377;28;8913;-76
2021/12/02 11:51:19;;;;;;;;;44.67;38.67;17.60;41.70;;;;;;5055344;28;8791;-76
2021/12/02 11:53:45;;;;;;;;;48.50;41.00;17.70;42.00;;;;;;5055456;28;8850;-77
2021/12/02 11:56:14;;;;;;;;;48.00;40.25;17.40;42.80;;;;;;5055536;28;9433;-76
2021/12/02 11:58:40;;;;;;;;;50.25;43.00;17.80;42.20;;;;;;5054158;28;8767;-76
2021/12/02 12:01:12;;;;;;;;;55.00;44.25;17.50;42.20;;;;;;5055496;28;8794;-77
2021/12/02 12:03:43;;;;;;;;;57.25;48.25;17.60;41.80;;;;;;5055686;28;8771;-77
2021/12/02 12:06:13;;;;;;;;;52.25;44.25;17.40;42.40;;;;;;5053322;28;8810;-76
2021/12/02 12:08:47;;;;;;;;;58.00;48.25;17.30;43.20;;;;;;5054479;28;8747;-77
2021/12/02 12:11:27;;;;;;;;;51.25;43.25;16.90;43.50;;;;;;5054956;28;8767;-76
2021/12/02 12:14:03;;;;;;;;;58.25;49.00;17.00;43.90;;;;;;5054004;28;8814;-77
2021/12/02 12:16:42;;;;;;;;;59.00;49.25;17.40;43.00;;;;;;5054820;28;8799;-76
2021/12/02 12:19:27;;;;;;;;;65.00;54.50;17.30;43.30;;;;;;5055121;28;8751;-77
2021/12/02 12:22:01;;;;;;;;;58.75;49.00;17.30;43.40;;;;;;5055000;28;8795;-77
2021/12/02 12:24:49;;;;;;;;;57.75;47.75;17.00;43.70;;;;;;5053912;28;8790;-76
2021/12/02 12:27:18;;;;;;;;;47.75;41.75;16.90;43.80;;;;;;5053701;28;8813;-76
2021/12/02 12:29:47;;;;;;;;;60.75;50.25;16.80;44.40;;;;;;5055060;28;8782;-77
2021/12/02 12:37:25;;;;;;;;;27.00;26.25;16.60;43.30;;;;;;5054959;28;8849;-77
2021/12/02 12:40:09;;;;;;;;;58.50;48.75;16.30;44.10;;;;;;5054881;28;8869;-77
2021/12/02 12:42:41;;;;;;;;;48.00;41.25;16.00;44.80;;;;;;5053426;28;8818;-76
2021/12/02 12:45:12;;;;;;;;;33.67;33.67;15.80;45.20;;;;;;5054542;28;8870;-76
2021/12/02 12:47:43;;;;;;;;;35.33;34.67;15.90;45.00;;;;;;5059460;28;8864;-70
2021/12/02 12:50:38;;;;;;;;;33.33;32.67;15.80;44.70;;;;;;5063734;28;9471;-69
2021/12/02 12:53:07;;;;;;;;;47.33;40.67;15.80;44.40;;;;;;5069282;28;9408;-70
2021/12/02 12:55:33;;;;;;;;;44.67;37.67;15.70;45.60;;;;;;5070866;28;8785;-70
2021/12/02 12:58:18;;;;;;;;;49.00;41.67;15.60;45.00;;;;;;5072957;28;8801;-70
2021/12/02 13:00:45;;;;;;;;;37.67;34.67;15.60;44.80;;;;;;5071330;28;8826;-70
2021/12/02 13:03:20;;;;;;;;;40.67;36.33;15.60;44.40;;;;;;5071644;28;8768;-70
2021/12/02 13:06:08;;;;;;;;;60.00;49.50;15.70;44.60;;;;;;5070539;28;8793;-70
2021/12/02 13:08:45;;;;;;;;;50.75;41.50;15.70;44.50;;;;;;5072664;28;8772;-70
2021/12/02 13:11:24;;;;;;;;;51.00;43.25;15.60;45.00;;;;;;5074318;28;8780;-64
2021/12/02 13:13:51;;;;;;;;;48.75;42.00;15.80;44.70;;;;;;5074692;28;8788;-63
2021/12/02 13:16:17;;;;;;;;;46.50;39.50;15.70;45.00;;;;;;5074387;28;8816;-67
2021/12/02 13:19:19;;;;;;;;;47.50;39.00;15.60;45.60;;;;;;5075115;28;8753;-67